Terminal Aerodrome Forecast
Issued by NWS Duluth, MN

Home | Current Version | Previous Version | Text Only | Print | Product List | Glossary On
Versions: 1 2 3 4 5 6 7 8 9 10 11 12 13 14 15 16 17 18 19 20 21
841
FTUS43 KDLH 141159
TAFINL
TAF
KINL 141159Z 1412/1512 15007KT P6SM SCT040 BKN080
     FM141600 16009KT 5SM -SN SCT015 OVC025
     FM141800 17010KT 3SM -SN OVC015
     FM142300 17008KT 2SM -SN OVC012
     FM150200 18008KT 3SM -SN OVC015
     FM150800 20005KT 6SM -SN OVC020=

USA.gov is the U.S. government's official web portal to all federal, state and local government web resources and services.